Time;durP1;ratioP1;P1;durP2;ratioP2;P2;SDS_P1;SDS_P2;PMS_P1;PMS_P2;Temp;Humidity;BMP_temperature;BMP_pressure;BME280_temperature;BME280_humidity;BME280_pressure;Samples;Min_cycle;Max_cycle;Signal;HPM_P1;HPM_P2
2023/12/26 00:01:09;;;;;;;;;;;9.60;99.90;;;;;;5082832;28;20409;-36
2023/12/26 00:03:35;;;;;;;;;;;9.70;99.90;;;;;;5090909;28;19954;-35
2023/12/26 00:06:02;;;;;;;;;;;9.70;99.90;;;;;;5081338;28;19943;-34
2023/12/26 00:08:29;;;;;;;;;;;9.70;99.90;;;;;;5087615;28;20319;-34
2023/12/26 00:10:57;;;;;;;;;;;9.70;99.90;;;;;;5071644;28;19962;-34
2023/12/26 00:13:24;;;;;;;;;;;9.70;99.90;;;;;;5087037;28;19944;-36
2023/12/26 00:15:51;;;;;;;;;;;9.70;99.90;;;;;;5086245;28;19961;-35
2023/12/26 00:18:18;;;;;;;;;;;9.70;99.90;;;;;;5087350;28;20020;-34
2023/12/26 00:20:45;;;;;;;;;;;9.70;99.90;;;;;;5088421;28;20007;-34
2023/12/26 00:23:11;;;;;;;;;;;9.70;99.90;;;;;;5085721;28;19950;-34
2023/12/26 00:25:38;;;;;;;;;;;9.70;99.90;;;;;;5090574;28;20406;-33
2023/12/26 00:28:06;;;;;;;;;;;9.70;99.90;;;;;;5110783;28;19960;-37
2023/12/26 00:30:33;;;;;;;;;;;9.80;99.90;;;;;;5091660;28;19936;-34
2023/12/26 00:33:00;;;;;;;;;;;9.80;99.90;;;;;;5110932;28;19938;-34
2023/12/26 00:35:26;;;;;;;;;;;9.80;99.90;;;;;;5112759;28;19954;-35
2023/12/26 00:37:53;;;;;;;;;;;9.80;99.90;;;;;;5111233;28;19938;-34
2023/12/26 00:40:20;;;;;;;;;;;9.80;99.90;;;;;;5111701;28;19949;-34
2023/12/26 00:42:47;;;;;;;;;;;9.80;99.90;;;;;;5090046;28;20039;-35
2023/12/26 00:45:15;;;;;;;;;;;9.80;99.90;;;;;;5089865;28;20271;-33
2023/12/26 00:47:42;;;;;;;;;;;9.80;99.90;;;;;;5093953;28;20430;-35
2023/12/26 00:50:11;;;;;;;;;;;9.80;99.90;;;;;;5090097;28;20408;-34
2023/12/26 00:52:38;;;;;;;;;;;9.80;99.90;;;;;;5104403;28;20412;-34
2023/12/26 00:55:06;;;;;;;;;;;9.80;99.90;;;;;;5089806;28;20009;-35
2023/12/26 00:57:33;;;;;;;;;;;9.80;99.90;;;;;;5109118;28;19934;-35
2023/12/26 01:00:00;;;;;;;;;;;9.80;99.90;;;;;;5111064;28;19940;-35
2023/12/26 01:02:28;;;;;;;;;;;9.90;99.90;;;;;;5090775;28;19936;-34
2023/12/26 01:04:56;;;;;;;;;;;9.90;99.90;;;;;;5090049;28;19940;-36
2023/12/26 01:07:22;;;;;;;;;;;9.90;99.90;;;;;;5108144;28;19940;-34
2023/12/26 01:09:49;;;;;;;;;;;9.90;99.90;;;;;;5083098;28;19940;-36
2023/12/26 01:12:16;;;;;;;;;;;9.90;99.90;;;;;;5108576;28;19940;-36
2023/12/26 01:14:43;;;;;;;;;;;9.90;99.90;;;;;;5111114;28;19945;-35
2023/12/26 01:17:10;;;;;;;;;;;9.90;99.90;;;;;;5089732;28;19958;-34
2023/12/26 01:19:38;;;;;;;;;;;9.90;99.90;;;;;;5111694;28;20404;-34
2023/12/26 01:22:05;;;;;;;;;;;9.90;99.90;;;;;;5092029;28;19994;-35
2023/12/26 01:24:32;;;;;;;;;;;9.80;99.90;;;;;;5095168;28;19940;-35
2023/12/26 01:26:58;;;;;;;;;;;9.80;99.90;;;;;;5114995;28;20332;-36
2023/12/26 01:29:25;;;;;;;;;;;9.80;99.90;;;;;;5115161;28;20311;-34
2023/12/26 01:31:52;;;;;;;;;;;9.80;99.90;;;;;;5092751;28;19946;-35
2023/12/26 01:34:19;;;;;;;;;;;9.80;99.90;;;;;;5093256;28;19939;-36
2023/12/26 01:36:47;;;;;;;;;;;9.80;99.90;;;;;;5089335;28;19957;-36
2023/12/26 01:39:14;;;;;;;;;;;9.80;99.90;;;;;;5114526;28;19940;-34
2023/12/26 01:41:41;;;;;;;;;;;9.80;99.90;;;;;;5114770;28;19940;-33
2023/12/26 01:44:07;;;;;;;;;;;9.80;99.90;;;;;;5093129;28;19947;-34
2023/12/26 01:46:34;;;;;;;;;;;9.80;99.90;;;;;;5113529;28;19961;-34
2023/12/26 01:49:01;;;;;;;;;;;9.80;99.90;;;;;;5094091;28;19936;-34
2023/12/26 01:51:28;;;;;;;;;;;9.70;99.90;;;;;;5094173;28;20063;-32
2023/12/26 01:53:56;;;;;;;;;;;9.70;99.90;;;;;;5093080;28;19954;-35
2023/12/26 01:56:23;;;;;;;;;;;9.70;99.90;;;;;;5093331;28;19960;-35
2023/12/26 01:58:49;;;;;;;;;;;9.70;99.90;;;;;;5114772;28;19948;-34
2023/12/26 02:01:16;;;;;;;;;;;9.70;99.90;;;;;;5114645;28;19949;-34
2023/12/26 02:03:43;;;;;;;;;;;9.70;99.90;;;;;;5114924;28;20534;-35
2023/12/26 02:06:10;;;;;;;;;;;9.60;99.90;;;;;;5093328;28;19944;-36
2023/12/26 02:08:37;;;;;;;;;;;9.60;99.90;;;;;;5095701;28;19963;-34
2023/12/26 02:11:05;;;;;;;;;;;9.60;99.90;;;;;;5090694;28;19947;-34
2023/12/26 02:13:32;;;;;;;;;;;9.60;99.90;;;;;;5111593;28;19945;-35
2023/12/26 02:15:59;;;;;;;;;;;9.60;99.90;;;;;;5093516;28;19954;-35
2023/12/26 02:18:26;;;;;;;;;;;9.60;99.90;;;;;;5110789;28;20287;-34
2023/12/26 02:20:53;;;;;;;;;;;9.60;99.90;;;;;;5092785;28;19924;-34
2023/12/26 02:23:20;;;;;;;;;;;9.60;99.90;;;;;;5109221;28;19945;-34
2023/12/26 02:25:48;;;;;;;;;;;9.60;99.90;;;;;;5113693;28;19938;-34
2023/12/26 02:28:14;;;;;;;;;;;9.60;99.90;;;;;;5093261;28;19940;-34
2023/12/26 02:30:41;;;;;;;;;;;9.60;99.90;;;;;;5094205;28;19941;-35
2023/12/26 02:33:08;;;;;;;;;;;9.50;99.90;;;;;;5087821;28;20359;-35
2023/12/26 02:35:35;;;;;;;;;;;9.60;99.90;;;;;;5112263;28;20397;-35
2023/12/26 02:38:01;;;;;;;;;;;9.60;99.90;;;;;;5113483;28;19940;-34
2023/12/26 02:40:28;;;;;;;;;;;9.50;99.90;;;;;;5114523;28;19967;-35
2023/12/26 02:42:56;;;;;;;;;;;9.50;99.90;;;;;;5113994;28;19959;-34
2023/12/26 02:45:23;;;;;;;;;;;9.50;99.90;;;;;;5112927;28;19938;-34
2023/12/26 02:47:50;;;;;;;;;;;9.50;99.90;;;;;;5113649;28;20317;-35
2023/12/26 02:50:16;;;;;;;;;;;9.50;99.90;;;;;;5091233;28;20416;-34
2023/12/26 02:52:43;;;;;;;;;;;9.50;99.90;;;;;;5091637;28;19941;-35
2023/12/26 02:55:11;;;;;;;;;;;9.50;99.90;;;;;;5092989;28;20375;-35
2023/12/26 02:57:38;;;;;;;;;;;9.50;99.90;;;;;;5112111;28;19966;-35
2023/12/26 03:00:07;;;;;;;;;;;9.60;99.90;;;;;;5113599;28;20369;-35
2023/12/26 03:02:34;;;;;;;;;;;9.50;99.90;;;;;;5113493;28;19977;-36
2023/12/26 03:05:00;;;;;;;;;;;9.50;99.90;;;;;;5112619;28;19945;-34
2023/12/26 03:07:27;;;;;;;;;;;9.50;99.90;;;;;;5093841;28;19946;-36
2023/12/26 03:09:54;;;;;;;;;;;9.50;99.90;;;;;;5113215;28;19942;-34
2023/12/26 03:12:20;;;;;;;;;;;9.50;99.90;;;;;;5112979;28;19945;-34
2023/12/26 03:14:47;;;;;;;;;;;9.50;99.90;;;;;;5091820;28;19941;-35
2023/12/26 03:17:15;;;;;;;;;;;9.50;99.90;;;;;;5089220;28;20322;-35
2023/12/26 03:19:42;;;;;;;;;;;9.50;99.90;;;;;;5112816;28;20342;-34
2023/12/26 03:22:09;;;;;;;;;;;9.50;99.90;;;;;;5091733;28;20009;-35
2023/12/26 03:24:35;;;;;;;;;;;9.50;99.90;;;;;;5093244;28;20305;-35
2023/12/26 03:27:02;;;;;;;;;;;9.50;99.90;;;;;;5113021;28;19968;-35
2023/12/26 03:29:29;;;;;;;;;;;9.50;99.90;;;;;;5093016;28;19948;-33
2023/12/26 03:31:56;;;;;;;;;;;9.30;99.90;;;;;;5112775;28;20307;-34
2023/12/26 03:34:24;;;;;;;;;;;9.10;99.90;;;;;;5091155;28;20255;-36
2023/12/26 03:36:50;;;;;;;;;;;8.90;99.90;;;;;;5090764;28;19950;-34
2023/12/26 03:39:17;;;;;;;;;;;8.70;99.90;;;;;;5109747;28;19941;-34
2023/12/26 03:41:48;;;;;;;;;;;8.60;99.90;;;;;;5089738;28;19948;-34
2023/12/26 03:44:15;;;;;;;;;;;8.40;99.90;;;;;;5108645;28;19949;-34
2023/12/26 03:46:42;;;;;;;;;;;8.40;99.90;;;;;;5093330;28;19948;-34
2023/12/26 03:49:07;;;;;;;;;;;8.30;99.90;;;;;;5112315;28;19943;-34
2023/12/26 03:51:35;;;;;;;;;;;8.30;99.90;;;;;;5093378;28;20055;-34
2023/12/26 03:54:03;;;;;;;;;;;8.20;99.90;;;;;;5111001;28;20307;-35
2023/12/26 03:56:30;;;;;;;;;;;8.20;99.90;;;;;;5111832;28;19960;-34
2023/12/26 03:58:57;;;;;;;;;;;8.20;99.90;;;;;;5091293;28;19953;-34
2023/12/26 04:01:24;;;;;;;;;;;8.20;99.90;;;;;;5083081;28;19946;-36
2023/12/26 04:03:50;;;;;;;;;;;8.20;99.90;;;;;;5112390;28;19948;-35
2023/12/26 04:06:17;;;;;;;;;;;8.20;99.90;;;;;;5090064;28;19934;-35
2023/12/26 04:08:45;;;;;;;;;;;8.20;99.90;;;;;;5090578;28;20413;-34
2023/12/26 04:11:12;;;;;;;;;;;8.20;99.90;;;;;;5088234;28;20358;-35
2023/12/26 04:13:39;;;;;;;;;;;8.20;99.90;;;;;;5093389;28;20047;-35
2023/12/26 04:16:06;;;;;;;;;;;8.20;99.90;;;;;;5091121;28;19965;-37
2023/12/26 04:18:32;;;;;;;;;;;8.10;99.90;;;;;;5110474;28;20297;-35
2023/12/26 04:20:59;;;;;;;;;;;8.20;99.90;;;;;;5090883;28;20031;-36
2023/12/26 04:23:26;;;;;;;;;;;8.10;99.90;;;;;;5106229;28;19937;-35
2023/12/26 04:25:54;;;;;;;;;;;8.10;99.90;;;;;;5103875;28;19968;-34
2023/12/26 04:28:21;;;;;;;;;;;8.10;99.90;;;;;;5088812;28;19946;-35
2023/12/26 04:30:48;;;;;;;;;;;8.10;99.90;;;;;;5112606;28;19939;-36
2023/12/26 04:33:15;;;;;;;;;;;8.00;99.90;;;;;;5090182;28;19985;-34
2023/12/26 04:35:42;;;;;;;;;;;8.00;99.90;;;;;;5092713;28;20436;-34
2023/12/26 04:38:09;;;;;;;;;;;8.00;99.90;;;;;;5110521;28;20260;-35
2023/12/26 04:40:36;;;;;;;;;;;8.00;99.90;;;;;;5111409;28;20372;-35
2023/12/26 04:43:08;;;;;;;;;;;7.90;99.90;;;;;;5090392;28;19945;-34
2023/12/26 04:45:36;;;;;;;;;;;7.90;99.90;;;;;;5080660;28;19939;-35
2023/12/26 04:48:04;;;;;;;;;;;7.90;99.90;;;;;;5088344;28;19959;-35
2023/12/26 04:50:31;;;;;;;;;;;7.90;99.90;;;;;;5091101;28;20403;-35
2023/12/26 04:52:58;;;;;;;;;;;7.80;99.90;;;;;;5089454;28;19949;-35
2023/12/26 04:55:24;;;;;;;;;;;7.80;99.90;;;;;;5110618;28;19940;-35
2023/12/26 04:57:51;;;;;;;;;;;7.80;99.90;;;;;;5116012;28;19964;-34
2023/12/26 05:00:19;;;;;;;;;;;7.70;99.90;;;;;;5094362;28;19943;-34
2023/12/26 05:02:46;;;;;;;;;;;7.80;99.90;;;;;;5094323;28;20377;-35
2023/12/26 05:05:13;;;;;;;;;;;7.70;99.90;;;;;;5093342;28;19950;-36
2023/12/26 05:07:39;;;;;;;;;;;7.70;99.90;;;;;;5111196;28;20326;-33
2023/12/26 05:10:07;;;;;;;;;;;7.80;99.90;;;;;;5092945;28;19946;-35
2023/12/26 05:12:33;;;;;;;;;;;7.70;99.90;;;;;;5097412;28;19941;-36
2023/12/26 05:15:00;;;;;;;;;;;7.70;99.90;;;;;;5091543;28;20021;-34
2023/12/26 05:17:28;;;;;;;;;;;7.70;99.90;;;;;;5095309;28;20051;-33
2023/12/26 05:19:55;;;;;;;;;;;7.70;99.90;;;;;;5093401;28;19945;-34
2023/12/26 05:22:22;;;;;;;;;;;7.70;99.90;;;;;;5111775;28;19943;-33
2023/12/26 05:24:48;;;;;;;;;;;7.70;99.90;;;;;;5093038;28;19944;-34
2023/12/26 05:27:15;;;;;;;;;;;7.70;99.90;;;;;;5093356;28;19958;-34
2023/12/26 05:29:43;;;;;;;;;;;7.70;99.90;;;;;;5097197;28;19940;-34
2023/12/26 05:32:10;;;;;;;;;;;7.80;99.90;;;;;;5114870;28;19940;-35
2023/12/26 05:34:38;;;;;;;;;;;7.80;99.90;;;;;;5096500;28;19940;-35
2023/12/26 05:37:05;;;;;;;;;;;7.80;99.90;;;;;;5085839;28;19951;-35
2023/12/26 05:39:32;;;;;;;;;;;7.80;99.90;;;;;;5086418;28;20688;-35
2023/12/26 05:41:57;;;;;;;;;;;7.80;99.90;;;;;;5113882;28;20330;-34
2023/12/26 05:44:24;;;;;;;;;;;7.90;99.90;;;;;;5092770;28;19945;-35
2023/12/26 05:46:51;;;;;;;;;;;8.00;99.90;;;;;;5113555;28;19945;-35
2023/12/26 05:49:18;;;;;;;;;;;8.00;99.90;;;;;;5115131;28;19936;-34
2023/12/26 05:51:45;;;;;;;;;;;8.00;99.90;;;;;;5093052;28;19953;-34
2023/12/26 05:54:12;;;;;;;;;;;8.00;99.90;;;;;;5092073;28;20006;-35
2023/12/26 05:56:40;;;;;;;;;;;8.10;99.90;;;;;;5095241;28;19942;-34
2023/12/26 05:59:06;;;;;;;;;;;8.10;99.90;;;;;;5113515;28;19938;-34
2023/12/26 06:01:33;;;;;;;;;;;8.10;99.90;;;;;;5113341;28;19963;-36
2023/12/26 06:04:00;;;;;;;;;;;8.10;99.90;;;;;;5112333;28;20321;-35
2023/12/26 06:06:27;;;;;;;;;;;8.10;99.90;;;;;;5093884;28;19937;-34
2023/12/26 06:08:55;;;;;;;;;;;8.10;99.90;;;;;;5093532;28;19947;-34
2023/12/26 06:11:21;;;;;;;;;;;8.10;99.90;;;;;;5091389;28;19954;-35
2023/12/26 06:13:48;;;;;;;;;;;8.20;99.90;;;;;;5092179;28;19947;-35
2023/12/26 06:16:15;;;;;;;;;;;8.20;99.90;;;;;;5092887;28;19941;-35
2023/12/26 06:18:42;;;;;;;;;;;8.20;99.90;;;;;;5093902;28;19959;-33
2023/12/26 06:21:08;;;;;;;;;;;8.30;99.90;;;;;;5091874;28;19936;-33
2023/12/26 06:23:35;;;;;;;;;;;8.30;99.90;;;;;;5091075;28;19945;-33
2023/12/26 06:26:03;;;;;;;;;;;8.30;99.90;;;;;;5075592;28;20386;-34
2023/12/26 06:28:30;;;;;;;;;;;8.30;99.90;;;;;;5110878;28;19936;-34
2023/12/26 06:30:57;;;;;;;;;;;8.30;99.90;;;;;;5096158;28;19950;-36
2023/12/26 06:33:24;;;;;;;;;;;8.40;99.90;;;;;;5095866;28;19940;-34
2023/12/26 06:35:50;;;;;;;;;;;8.40;99.90;;;;;;5113633;28;19938;-33
2023/12/26 06:38:17;;;;;;;;;;;8.40;99.90;;;;;;5114971;28;19961;-33
2023/12/26 06:40:44;;;;;;;;;;;8.40;99.90;;;;;;5095790;28;19950;-36
2023/12/26 06:43:14;;;;;;;;;;;8.40;99.90;;;;;;5113714;28;20428;-35
2023/12/26 06:45:40;;;;;;;;;;;8.40;99.90;;;;;;5087562;28;19961;-33
2023/12/26 06:48:07;;;;;;;;;;;8.40;99.90;;;;;;5113433;28;19942;-34
2023/12/26 06:50:34;;;;;;;;;;;8.40;99.90;;;;;;5096257;28;19946;-34
2023/12/26 06:53:01;;;;;;;;;;;8.40;99.90;;;;;;5095205;28;20510;-35
2023/12/26 06:55:27;;;;;;;;;;;8.40;99.90;;;;;;5095614;28;19940;-34
2023/12/26 06:57:54;;;;;;;;;;;8.40;99.90;;;;;;5094935;28;20333;-35
2023/12/26 07:00:22;;;;;;;;;;;8.40;99.90;;;;;;5095473;28;20025;-36
2023/12/26 07:02:49;;;;;;;;;;;8.40;99.90;;;;;;5114287;28;20317;-35
2023/12/26 07:05:16;;;;;;;;;;;8.40;99.90;;;;;;5113345;28;19940;-36
2023/12/26 07:07:43;;;;;;;;;;;8.40;99.90;;;;;;5095118;28;19966;-34
2023/12/26 07:10:09;;;;;;;;;;;8.30;99.90;;;;;;5095433;28;19947;-35
2023/12/26 07:12:37;;;;;;;;;;;8.30;99.90;;;;;;5095200;28;19936;-35
2023/12/26 07:15:04;;;;;;;;;;;8.30;99.90;;;;;;5114339;28;19945;-34
2023/12/26 07:17:32;;;;;;;;;;;8.30;99.90;;;;;;5111815;28;19952;-34
2023/12/26 07:19:59;;;;;;;;;;;8.30;99.90;;;;;;5113097;28;19948;-36
2023/12/26 07:22:26;;;;;;;;;;;8.30;99.90;;;;;;5112485;28;20318;-34
2023/12/26 07:24:53;;;;;;;;;;;8.30;99.90;;;;;;5098485;28;19960;-33
2023/12/26 07:27:19;;;;;;;;;;;8.30;99.90;;;;;;5088549;28;19964;-35
2023/12/26 07:29:46;;;;;;;;;;;8.30;99.90;;;;;;5084452;28;19964;-35
2023/12/26 07:32:13;;;;;;;;;;;8.30;99.90;;;;;;5091041;28;19941;-35
2023/12/26 07:34:41;;;;;;;;;;;8.20;99.90;;;;;;5091248;28;19949;-34
2023/12/26 07:37:08;;;;;;;;;;;8.20;99.90;;;;;;5085931;28;19965;-34
2023/12/26 07:39:35;;;;;;;;;;;8.20;99.90;;;;;;5091932;28;20036;-34
2023/12/26 07:42:02;;;;;;;;;;;8.20;99.90;;;;;;5093483;28;20330;-34
2023/12/26 07:44:29;;;;;;;;;;;8.20;99.90;;;;;;5089173;28;20384;-35
2023/12/26 07:46:56;;;;;;;;;;;8.20;99.90;;;;;;5083904;28;19943;-34
2023/12/26 07:49:24;;;;;;;;;;;8.20;99.90;;;;;;5083420;28;19944;-35
2023/12/26 07:51:52;;;;;;;;;;;8.20;99.90;;;;;;5087110;28;19964;-34
2023/12/26 07:54:19;;;;;;;;;;;8.10;99.90;;;;;;5085376;28;19937;-35
2023/12/26 07:56:45;;;;;;;;;;;8.10;99.90;;;;;;5082760;28;19961;-35
2023/12/26 07:59:13;;;;;;;;;;;8.10;99.90;;;;;;5089522;28;19980;-35
2023/12/26 08:01:40;;;;;;;;;;;8.10;99.90;;;;;;5087832;28;19945;-37
2023/12/26 08:04:07;;;;;;;;;;;8.10;99.90;;;;;;5091086;28;19951;-35
2023/12/26 08:06:33;;;;;;;;;;;8.10;99.90;;;;;;5090483;28;19949;-35
2023/12/26 08:09:02;;;;;;;;;;;8.10;99.90;;;;;;5083091;28;19948;-34
2023/12/26 08:11:29;;;;;;;;;;;8.10;99.90;;;;;;5091689;28;19942;-36
2023/12/26 08:13:55;;;;;;;;;;;8.10;99.90;;;;;;5083352;28;19950;-33
2023/12/26 08:16:22;;;;;;;;;;;8.20;99.90;;;;;;5090086;28;20395;-36
2023/12/26 08:18:49;;;;;;;;;;;8.10;99.90;;;;;;5092377;28;19954;-35
2023/12/26 08:21:15;;;;;;;;;;;8.10;99.90;;;;;;5091463;28;19940;-33
2023/12/26 08:23:42;;;;;;;;;;;8.10;99.90;;;;;;5088701;28;20306;-34
2023/12/26 08:26:10;;;;;;;;;;;8.20;99.90;;;;;;5079280;28;19967;-34
2023/12/26 08:28:37;;;;;;;;;;;8.20;99.90;;;;;;5096568;28;20399;-35
2023/12/26 08:31:04;;;;;;;;;;;8.20;99.90;;;;;;5111900;28;19968;-33
2023/12/26 08:33:31;;;;;;;;;;;8.20;99.90;;;;;;5109990;28;19970;-34
2023/12/26 08:35:58;;;;;;;;;;;8.20;99.90;;;;;;5111281;28;19952;-34
2023/12/26 08:38:24;;;;;;;;;;;8.20;99.90;;;;;;5111827;28;19956;-34
2023/12/26 08:40:51;;;;;;;;;;;8.20;99.90;;;;;;5090125;28;19947;-34
2023/12/26 08:43:19;;;;;;;;;;;8.20;99.90;;;;;;5107418;28;20308;-34
2023/12/26 08:45:46;;;;;;;;;;;8.20;99.90;;;;;;5112505;28;20333;-34
2023/12/26 08:48:13;;;;;;;;;;;8.20;99.90;;;;;;5088959;28;19938;-33
2023/12/26 08:50:39;;;;;;;;;;;8.20;99.90;;;;;;5108903;28;19955;-34
2023/12/26 08:53:06;;;;;;;;;;;8.20;99.90;;;;;;5089881;28;19936;-36
2023/12/26 08:55:33;;;;;;;;;;;8.20;99.90;;;;;;5089091;28;19942;-36
2023/12/26 08:58:00;;;;;;;;;;;8.20;99.90;;;;;;5089253;28;19953;-33
2023/12/26 09:00:28;;;;;;;;;;;8.30;99.90;;;;;;5106106;28;19962;-34
2023/12/26 09:02:55;;;;;;;;;;;8.30;99.90;;;;;;5108431;28;19946;-34
2023/12/26 09:05:20;;;;;;;;;;;8.30;99.90;;;;;;5110760;28;20391;-35
2023/12/26 09:07:47;;;;;;;;;;;8.30;99.90;;;;;;5081602;28;19949;-37
2023/12/26 09:10:14;;;;;;;;;;;8.30;99.90;;;;;;5073080;28;19945;-34
2023/12/26 09:12:40;;;;;;;;;;;8.30;99.90;;;;;;5109627;28;20550;-34
2023/12/26 09:15:07;;;;;;;;;;;8.30;99.90;;;;;;5084182;28;19924;-35
2023/12/26 09:17:36;;;;;;;;;;;8.30;99.90;;;;;;5095610;28;20020;-35
2023/12/26 09:20:03;;;;;;;;;;;8.40;99.90;;;;;;5072925;28;19940;-35
2023/12/26 09:22:30;;;;;;;;;;;8.40;99.90;;;;;;5104851;28;20501;-35
2023/12/26 09:24:56;;;;;;;;;;;8.40;99.90;;;;;;5077450;28;19937;-33
2023/12/26 09:27:23;;;;;;;;;;;8.50;99.90;;;;;;5087000;28;19960;-34
2023/12/26 09:29:50;;;;;;;;;;;8.50;99.90;;;;;;5087593;28;20394;-34
2023/12/26 09:32:16;;;;;;;;;;;8.50;99.90;;;;;;5104679;28;20334;-34
2023/12/26 09:34:45;;;;;;;;;;;8.50;99.90;;;;;;5110936;28;19942;-35
2023/12/26 09:37:11;;;;;;;;;;;8.50;99.90;;;;;;5108807;28;20349;-35
2023/12/26 09:39:38;;;;;;;;;;;8.50;99.90;;;;;;5098135;28;19960;-35
2023/12/26 09:42:05;;;;;;;;;;;8.60;99.90;;;;;;5093556;28;19927;-35
2023/12/26 09:44:31;;;;;;;;;;;8.60;99.90;;;;;;5094958;28;19943;-36
2023/12/26 09:46:58;;;;;;;;;;;8.60;99.90;;;;;;5080526;28;19944;-35
2023/12/26 09:49:25;;;;;;;;;;;8.60;99.90;;;;;;5092138;28;20388;-34
2023/12/26 09:51:53;;;;;;;;;;;8.70;99.90;;;;;;5110098;28;19947;-34
2023/12/26 09:54:20;;;;;;;;;;;8.80;99.90;;;;;;5093410;28;20357;-35
2023/12/26 09:56:46;;;;;;;;;;;8.90;99.90;;;;;;5093224;28;19940;-35
2023/12/26 09:59:13;;;;;;;;;;;8.90;99.90;;;;;;5093543;28;19964;-35
2023/12/26 10:01:40;;;;;;;;;;;9.00;99.90;;;;;;5097016;28;19946;-34
2023/12/26 10:04:07;;;;;;;;;;;9.00;99.90;;;;;;5113169;28;19943;-35
2023/12/26 10:06:37;;;;;;;;;;;9.00;99.90;;;;;;5111778;28;20256;-35
2023/12/26 10:09:05;;;;;;;;;;;9.00;99.90;;;;;;5091425;28;19962;-36
2023/12/26 10:11:32;;;;;;;;;;;9.00;99.90;;;;;;5086903;28;19941;-35
2023/12/26 10:13:59;;;;;;;;;;;9.10;99.90;;;;;;5113557;28;19941;-34
2023/12/26 10:16:26;;;;;;;;;;;9.20;99.90;;;;;;5111200;28;19941;-34
2023/12/26 10:18:53;;;;;;;;;;;9.30;99.90;;;;;;5112933;28;19956;-34
2023/12/26 10:21:19;;;;;;;;;;;9.30;99.90;;;;;;5093424;28;19944;-34
2023/12/26 10:23:46;;;;;;;;;;;9.20;99.90;;;;;;5090592;28;20389;-36
2023/12/26 10:26:14;;;;;;;;;;;9.20;99.90;;;;;;5091315;28;19960;-35
2023/12/26 10:28:42;;;;;;;;;;;9.10;99.90;;;;;;5096133;28;19946;-35
2023/12/26 10:31:13;;;;;;;;;;;9.10;99.90;;;;;;5091915;28;20391;-35
2023/12/26 10:33:40;;;;;;;;;;;9.10;99.90;;;;;;5095842;28;19989;-36
2023/12/26 10:36:07;;;;;;;;;;;9.10;99.90;;;;;;5113772;28;19934;-36
2023/12/26 10:38:34;;;;;;;;;;;9.10;99.90;;;;;;5113406;28;20292;-37
2023/12/26 10:41:01;;;;;;;;;;;9.10;99.90;;;;;;5091387;28;19940;-36
2023/12/26 10:43:30;;;;;;;;;;;9.10;99.90;;;;;;5092128;28;19947;-33
2023/12/26 10:45:59;;;;;;;;;;;9.00;99.90;;;;;;5113627;28;19940;-35
2023/12/26 10:48:26;;;;;;;;;;;9.00;99.90;;;;;;5103657;28;20310;-35
2023/12/26 10:50:53;;;;;;;;;;;9.00;99.90;;;;;;5091338;28;19994;-35
2023/12/26 10:53:19;;;;;;;;;;;9.00;99.90;;;;;;5092469;28;20001;-35
2023/12/26 10:55:46;;;;;;;;;;;9.00;99.90;;;;;;5092258;28;19948;-35
2023/12/26 10:58:17;;;;;;;;;;;9.10;99.90;;;;;;5092232;28;19952;-35
2023/12/26 13:52:05;;;;;;;;;;;8.70;99.90;;;;;;5090436;28;19942;-34
2023/12/26 13:54:31;;;;;;;;;;;8.70;99.90;;;;;;5111549;28;20415;-35
2023/12/26 13:56:58;;;;;;;;;;;8.60;99.90;;;;;;5113949;28;19939;-34
2023/12/26 13:59:24;;;;;;;;;;;8.60;99.90;;;;;;5093848;28;19981;-34
2023/12/26 14:01:50;;;;;;;;;;;8.60;99.90;;;;;;5113892;28;20296;-34
2023/12/26 14:04:17;;;;;;;;;;;8.50;99.90;;;;;;5094159;28;19981;-35
2023/12/26 14:06:46;;;;;;;;;;;8.50;99.90;;;;;;5090111;28;19942;-33
2023/12/26 14:09:14;;;;;;;;;;;8.50;99.90;;;;;;5108854;28;19947;-34
2023/12/26 14:11:41;;;;;;;;;;;8.40;99.90;;;;;;5095681;28;19990;-34
2023/12/26 14:14:08;;;;;;;;;;;8.40;99.90;;;;;;5113205;28;19942;-36
2023/12/26 14:16:35;;;;;;;;;;;8.40;99.90;;;;;;5095481;28;20008;-35
2023/12/26 14:19:02;;;;;;;;;;;8.30;99.90;;;;;;5113294;28;19964;-34
2023/12/26 14:21:29;;;;;;;;;;;8.30;99.90;;;;;;5094070;28;19924;-34
2023/12/26 14:23:55;;;;;;;;;;;8.20;99.90;;;;;;5115086;28;19940;-35
2023/12/26 14:26:23;;;;;;;;;;;8.20;99.90;;;;;;5114844;28;20438;-36
2023/12/26 14:28:50;;;;;;;;;;;8.10;99.90;;;;;;5093634;28;19940;-35
2023/12/26 14:31:18;;;;;;;;;;;8.10;99.90;;;;;;5093936;28;19940;-34
2023/12/26 14:33:45;;;;;;;;;;;8.00;99.90;;;;;;5105288;27;20038;-35
2023/12/26 14:36:12;;;;;;;;;;;7.90;99.90;;;;;;5115088;28;19972;-35
2023/12/26 14:38:38;;;;;;;;;;;7.90;99.90;;;;;;5115183;28;20308;-33
2023/12/26 14:41:05;;;;;;;;;;;7.80;99.90;;;;;;5102070;28;19939;-35
2023/12/26 14:43:33;;;;;;;;;;;7.80;99.90;;;;;;5094315;28;20350;-35
2023/12/26 14:46:00;;;;;;;;;;;7.70;99.90;;;;;;5073287;28;19947;-35
2023/12/26 14:48:27;;;;;;;;;;;7.70;99.90;;;;;;5107496;28;20402;-34
2023/12/26 14:50:54;;;;;;;;;;;7.60;99.90;;;;;;5112142;28;20365;-35
2023/12/26 14:53:21;;;;;;;;;;;7.60;99.90;;;;;;5093472;28;19940;-35
2023/12/26 14:55:48;;;;;;;;;;;7.60;99.90;;;;;;5092657;28;19996;-35
2023/12/26 14:58:14;;;;;;;;;;;7.60;99.90;;;;;;5110490;28;19949;-33
2023/12/26 15:00:42;;;;;;;;;;;7.50;99.90;;;;;;5113887;28;19961;-34
2023/12/26 15:03:10;;;;;;;;;;;7.50;99.90;;;;;;5093443;28;19949;-35
2023/12/26 15:05:36;;;;;;;;;;;7.50;99.90;;;;;;5076106;28;19938;-37
2023/12/26 15:08:03;;;;;;;;;;;7.40;99.90;;;;;;5114352;28;20352;-35
2023/12/26 15:10:30;;;;;;;;;;;7.40;99.90;;;;;;5093019;28;20392;-34
2023/12/26 15:12:57;;;;;;;;;;;7.40;99.90;;;;;;5113885;28;20019;-34
2023/12/26 15:15:23;;;;;;;;;;;7.40;99.90;;;;;;5114381;28;20306;-35
2023/12/26 15:17:51;;;;;;;;;;;7.30;99.90;;;;;;5085937;28;19952;-37
2023/12/26 15:20:18;;;;;;;;;;;7.30;99.90;;;;;;5110420;28;19962;-34
2023/12/26 15:22:46;;;;;;;;;;;7.20;99.90;;;;;;5114353;28;20345;-36
2023/12/26 15:25:12;;;;;;;;;;;7.20;99.90;;;;;;5113277;28;20298;-34
2023/12/26 15:27:39;;;;;;;;;;;7.20;99.90;;;;;;5093155;28;20018;-34
2023/12/26 15:30:06;;;;;;;;;;;7.10;99.90;;;;;;5078902;28;20356;-34
2023/12/26 15:32:33;;;;;;;;;;;7.10;99.90;;;;;;5094774;28;19940;-34
2023/12/26 15:35:03;;;;;;;;;;;7.10;99.90;;;;;;5092358;28;19944;-34
2023/12/26 15:37:30;;;;;;;;;;;7.00;99.90;;;;;;5088928;28;19939;-35
2023/12/26 15:39:57;;;;;;;;;;;7.00;99.90;;;;;;5113717;28;20430;-33
2023/12/26 15:42:24;;;;;;;;;;;7.00;99.90;;;;;;5092470;28;19943;-34
2023/12/26 15:44:50;;;;;;;;;;;6.90;99.90;;;;;;5092260;28;20353;-35
2023/12/26 15:47:17;;;;;;;;;;;6.90;99.90;;;;;;5106265;28;19942;-34
2023/12/26 15:49:44;;;;;;;;;;;6.90;99.90;;;;;;5087148;28;19938;-34
2023/12/26 15:52:12;;;;;;;;;;;6.90;99.90;;;;;;5095261;28;19947;-35
2023/12/26 15:54:40;;;;;;;;;;;6.80;99.90;;;;;;5091253;28;19993;-34
2023/12/26 15:57:07;;;;;;;;;;;6.80;99.90;;;;;;5090281;28;19981;-35
2023/12/26 15:59:34;;;;;;;;;;;6.70;99.90;;;;;;5092957;28;19931;-35
2023/12/26 16:02:00;;;;;;;;;;;6.70;99.90;;;;;;5089410;28;19948;-36
2023/12/26 16:04:28;;;;;;;;;;;6.70;99.90;;;;;;5110556;28;19950;-34
2023/12/26 16:06:54;;;;;;;;;;;6.70;99.90;;;;;;5112618;28;20298;-34
2023/12/26 16:09:24;;;;;;;;;;;6.60;99.90;;;;;;5092405;28;19941;-35
2023/12/26 16:11:51;;;;;;;;;;;6.60;99.90;;;;;;5091481;28;19942;-35
2023/12/26 16:14:19;;;;;;;;;;;6.60;99.90;;;;;;5108690;28;19949;-35
2023/12/26 16:16:46;;;;;;;;;;;6.50;99.90;;;;;;5091292;28;19968;-33
2023/12/26 16:19:13;;;;;;;;;;;6.50;99.90;;;;;;5091721;28;19940;-35
2023/12/26 16:21:41;;;;;;;;;;;6.50;99.90;;;;;;5093819;28;19924;-34
2023/12/26 16:24:10;;;;;;;;;;;6.40;99.90;;;;;;5112277;28;20285;-34
2023/12/26 16:26:42;;;;;;;;;;;6.40;99.90;;;;;;5092268;28;20041;-34
2023/12/26 16:29:10;;;;;;;;;;;6.40;99.90;;;;;;5070845;28;20030;-34
2023/12/26 16:31:37;;;;;;;;;;;6.40;99.90;;;;;;5083151;28;20024;-35
2023/12/26 16:34:04;;;;;;;;;;;6.30;99.90;;;;;;5110095;28;19960;-34
2023/12/26 16:36:30;;;;;;;;;;;6.30;99.90;;;;;;5111349;28;19951;-36
2023/12/26 16:38:57;;;;;;;;;;;6.20;99.90;;;;;;5089639;28;19937;-35
2023/12/26 16:41:24;;;;;;;;;;;6.20;99.90;;;;;;5108136;28;20359;-34
2023/12/26 16:43:52;;;;;;;;;;;6.20;99.90;;;;;;5089149;28;19948;-34
2023/12/26 16:46:18;;;;;;;;;;;6.10;99.90;;;;;;5084908;28;19963;-35
2023/12/26 16:48:45;;;;;;;;;;;6.10;99.90;;;;;;5106980;28;20343;-34
2023/12/26 16:51:12;;;;;;;;;;;6.10;99.90;;;;;;5110699;28;19940;-34
2023/12/26 16:53:39;;;;;;;;;;;6.10;99.90;;;;;;5110462;28;20359;-34
2023/12/26 16:56:06;;;;;;;;;;;6.10;99.90;;;;;;5085959;28;19946;-35
2023/12/26 16:58:33;;;;;;;;;;;6.20;99.90;;;;;;5109087;28;20461;-36
2023/12/26 17:01:02;;;;;;;;;;;6.20;99.90;;;;;;5110191;28;20010;-35
2023/12/26 17:03:28;;;;;;;;;;;6.20;99.90;;;;;;5102779;28;19984;-34
2023/12/26 17:05:55;;;;;;;;;;;6.20;99.90;;;;;;5090086;28;19967;-35
2023/12/26 17:08:22;;;;;;;;;;;6.20;99.90;;;;;;5091052;28;19946;-36
2023/12/26 17:10:48;;;;;;;;;;;6.20;99.90;;;;;;5090592;28;19949;-34
2023/12/26 17:13:15;;;;;;;;;;;6.20;99.90;;;;;;5088370;28;20007;-34
2023/12/26 17:15:42;;;;;;;;;;;6.20;99.90;;;;;;5111133;28;19930;-35
2023/12/26 17:18:10;;;;;;;;;;;6.20;99.90;;;;;;5089896;28;19938;-34
2023/12/26 17:20:37;;;;;;;;;;;6.20;99.90;;;;;;5109136;28;20247;-34